createdAt,value
2023-01-08T00:00:20.002Z,97098.50
2023-01-08T00:02:30.837Z,97098.34
2023-01-08T00:04:38.964Z,97092.16
2023-01-08T00:06:46.985Z,97096.44
2023-01-08T00:08:54.920Z,97090.88
2023-01-08T00:11:02.850Z,97090.88
2023-01-08T00:13:10.954Z,97084.28
2023-01-08T00:15:18.998Z,97073.22
2023-01-08T00:17:26.974Z,97071.38
2023-01-08T00:19:37.427Z,97075.31
2023-01-08T00:21:45.248Z,97073.00
2023-01-08T00:23:53.423Z,97065.25
2023-01-08T00:26:04.251Z,97064.34
2023-01-08T00:28:12.219Z,97074.38
2023-01-08T00:30:21.071Z,97076.78
2023-01-08T00:32:29.114Z,97071.19
2023-01-08T00:34:39.587Z,97067.50
2023-01-08T00:36:47.356Z,97061.22
2023-01-08T00:38:55.580Z,97052.63
2023-01-08T00:41:03.457Z,97058.41
2023-01-08T00:43:11.753Z,97056.81
2023-01-08T00:45:19.665Z,97041.47
2023-01-08T00:47:27.572Z,97028.81
2023-01-08T00:49:35.744Z,97023.47
2023-01-08T00:51:46.450Z,97021.06
2023-01-08T00:53:54.275Z,97009.56
2023-01-08T00:56:07.174Z,96997.94
2023-01-08T00:58:15.265Z,97023.84
2023-01-08T01:00:23.374Z,97021.53
2023-01-08T01:02:31.493Z,97015.88
2023-01-08T01:04:41.963Z,97022.59
2023-01-08T01:06:52.518Z,97005.91
2023-01-08T01:09:00.387Z,97016.50
2023-01-08T01:11:10.623Z,97013.03
2023-01-08T01:13:18.700Z,97016.13
2023-01-08T01:15:26.731Z,97002.34
2023-01-08T01:17:34.796Z,97015.03
2023-01-08T01:19:42.848Z,97005.19
2023-01-08T01:21:53.536Z,97010.38
2023-01-08T01:24:03.706Z,97001.59
2023-01-08T01:26:19.141Z,97003.28
2023-01-08T01:28:27.186Z,97010.22
2023-01-08T01:30:35.114Z,97013.31
2023-01-08T01:32:43.488Z,97003.13
2023-01-08T01:34:51.436Z,97007.63
2023-01-08T01:37:02.308Z,96998.00
2023-01-08T01:39:10.618Z,97011.00
2023-01-08T01:41:27.025Z,97015.88
2023-01-08T01:43:40.649Z,97013.44
2023-01-08T01:45:48.640Z,97017.97
2023-01-08T01:48:00.743Z,97013.16
2023-01-08T01:50:15.010Z,97007.91
2023-01-08T01:52:28.349Z,97019.44
2023-01-08T01:54:38.666Z,97019.44
2023-01-08T01:56:47.327Z,97014.72
2023-01-08T01:58:55.511Z,97013.22
2023-01-08T02:01:07.437Z,97009.50
2023-01-08T02:03:18.189Z,97012.53
2023-01-08T02:05:32.564Z,97010.72
2023-01-08T02:07:49.444Z,97016.00
2023-01-08T02:10:07.975Z,97019.09
2023-01-08T02:12:22.015Z,97007.94
2023-01-08T02:14:35.286Z,96999.94
2023-01-08T02:16:49.136Z,96998.00
2023-01-08T02:19:01.877Z,96993.44
2023-01-08T02:21:14.449Z,96992.34
2023-01-08T02:23:33.554Z,96992.03
2023-01-08T02:26:07.354Z,96985.09
2023-01-08T02:28:18.439Z,96986.66
2023-01-08T02:30:27.959Z,96978.44
2023-01-08T02:32:39.146Z,96977.69
2023-01-08T02:34:47.127Z,96971.34
2023-01-08T02:36:57.544Z,96968.00
2023-01-08T02:39:17.566Z,96965.69
2023-01-08T02:41:39.207Z,96946.59
2023-01-08T02:43:51.289Z,96942.16
2023-01-08T02:46:04.142Z,96936.59
2023-01-08T02:48:15.993Z,96947.28
2023-01-08T02:50:31.179Z,96943.25
2023-01-08T02:52:45.531Z,96937.16
2023-01-08T02:54:54.329Z,96924.94
2023-01-08T02:57:09.163Z,96916.63
2023-01-08T02:59:18.449Z,96923.06
2023-01-08T03:01:28.994Z,96919.88
2023-01-08T03:03:38.709Z,96913.41
2023-01-08T03:05:50.004Z,96916.03
2023-01-08T03:07:58.615Z,96913.78
2023-01-08T03:10:07.087Z,96908.59
2023-01-08T03:12:22.858Z,96902.81
2023-01-08T03:14:35.595Z,96909.44
2023-01-08T03:16:48.423Z,96905.88
2023-01-08T03:19:04.351Z,96899.78
2023-01-08T03:21:13.460Z,96901.56
2023-01-08T03:23:24.656Z,96893.34
2023-01-08T03:25:33.343Z,96890.94
2023-01-08T03:27:47.214Z,96895.13
2023-01-08T03:29:57.912Z,96895.13
2023-01-08T03:32:09.743Z,96887.88
2023-01-08T03:34:19.098Z,96894.47
2023-01-08T03:36:31.097Z,96888.97
2023-01-08T03:38:45.359Z,96887.84
2023-01-08T03:40:58.775Z,96888.31
2023-01-08T03:43:09.611Z,96882.78
2023-01-08T03:45:17.594Z,96881.41
2023-01-08T03:47:28.475Z,96884.59
2023-01-08T03:49:38.536Z,96886.06
2023-01-08T03:51:48.578Z,96883.00
2023-01-08T03:54:01.391Z,96885.50
2023-01-08T03:56:10.334Z,96889.13
2023-01-08T03:58:20.728Z,96890.59
2023-01-08T04:00:29.654Z,96886.75
2023-01-08T04:02:37.517Z,96883.22
2023-01-08T04:04:45.819Z,96878.50
2023-01-08T04:06:55.606Z,96870.59
2023-01-08T04:09:03.533Z,96869.59
2023-01-08T04:11:11.427Z,96872.59
2023-01-08T04:13:22.008Z,96869.72
2023-01-08T04:15:29.966Z,96868.44
2023-01-08T04:17:38.101Z,96871.75
2023-01-08T04:19:46.310Z,96882.69
2023-01-08T04:21:54.420Z,96874.53
2023-01-08T04:24:02.340Z,96871.84
2023-01-08T04:26:11.699Z,96865.47
2023-01-08T04:28:22.493Z,96880.75
2023-01-08T04:30:30.345Z,96879.81
2023-01-08T04:32:38.113Z,96871.91
2023-01-08T04:34:46.043Z,96872.44
2023-01-08T04:36:53.907Z,96876.66
2023-01-08T04:39:01.790Z,96869.69
2023-01-08T04:41:09.704Z,96884.47
2023-01-08T04:43:17.669Z,96877.59
2023-01-08T04:45:28.469Z,96886.84
2023-01-08T04:47:36.806Z,96890.56
2023-01-08T04:49:44.743Z,96900.19
2023-01-08T04:51:52.862Z,96893.19
2023-01-08T04:54:00.788Z,96898.25
2023-01-08T04:56:13.000Z,96906.91
2023-01-08T04:58:21.013Z,96909.88
2023-01-08T05:00:31.525Z,96918.56
2023-01-08T05:02:39.915Z,96927.06
2023-01-08T05:04:48.135Z,96927.53
2023-01-08T05:06:56.090Z,96924.22
2023-01-08T05:09:04.365Z,96928.28
2023-01-08T05:11:12.406Z,96933.13
2023-01-08T05:13:20.647Z,96918.38
2023-01-08T05:15:31.564Z,96920.75
2023-01-08T05:17:39.807Z,96920.94
2023-01-08T05:19:47.638Z,96918.59
2023-01-08T05:21:55.829Z,96911.16
2023-01-08T05:24:03.778Z,96904.06
2023-01-08T05:26:11.699Z,96902.84
2023-01-08T05:28:19.773Z,96906.91
2023-01-08T05:30:31.772Z,96907.41
2023-01-08T05:32:39.828Z,96906.81
2023-01-08T05:34:48.266Z,96896.53
2023-01-08T05:36:56.208Z,96899.00
2023-01-08T05:39:04.132Z,96893.78
2023-01-08T05:41:13.367Z,96899.13
2023-01-08T05:43:22.205Z,96890.44
2023-01-08T05:45:32.826Z,96886.66
2023-01-08T05:47:41.083Z,96883.50
2023-01-08T05:49:49.270Z,96882.72
2023-01-08T05:51:57.260Z,96892.75
2023-01-08T05:54:05.766Z,96911.81
2023-01-08T05:56:15.146Z,96916.81
2023-01-08T05:58:23.624Z,96910.03
2023-01-08T06:00:35.978Z,96915.13
2023-01-08T06:02:45.484Z,96916.22
2023-01-08T06:04:53.434Z,96918.56
2023-01-08T06:07:01.456Z,96912.28
2023-01-08T06:09:09.359Z,96908.56
2023-01-08T06:11:17.276Z,96901.63
2023-01-08T06:13:25.176Z,96886.34
2023-01-08T06:15:35.805Z,96891.66
2023-01-08T06:17:45.095Z,96889.31
2023-01-08T06:19:52.992Z,96883.34
2023-01-08T06:22:00.918Z,96880.72
2023-01-08T06:24:09.251Z,96867.16
2023-01-08T06:26:20.431Z,96874.06
2023-01-08T06:28:29.613Z,96870.88
2023-01-08T06:30:40.244Z,96852.75
2023-01-08T06:32:48.077Z,96849.16
2023-01-08T06:34:56.245Z,96850.63
2023-01-08T06:37:04.371Z,96840.88
2023-01-08T06:39:13.369Z,96839.44
2023-01-08T06:41:21.499Z,96839.13
2023-01-08T06:43:29.467Z,96841.16
2023-01-08T06:45:40.076Z,96846.94
2023-01-08T06:47:48.022Z,96862.56
2023-01-08T06:49:56.237Z,96875.84
2023-01-08T06:52:04.449Z,96879.88
2023-01-08T06:54:13.647Z,96889.09
2023-01-08T06:56:21.770Z,96885.00
2023-01-08T06:58:31.111Z,96887.38
2023-01-08T07:00:41.979Z,96873.84
2023-01-08T07:02:49.926Z,96867.50
2023-01-08T07:04:57.863Z,96865.44
2023-01-08T07:07:05.976Z,96846.66
2023-01-08T07:09:15.863Z,96840.09
2023-01-08T07:11:24.204Z,96843.63
2023-01-08T07:13:33.941Z,96840.06
2023-01-08T07:15:44.882Z,96848.16
2023-01-08T07:17:52.770Z,96844.22
2023-01-08T07:20:00.695Z,96836.59
2023-01-08T07:22:08.561Z,96839.13
2023-01-08T07:24:16.437Z,96835.34
2023-01-08T07:26:24.359Z,96836.19
2023-01-08T07:28:33.069Z,96844.69
2023-01-08T07:30:40.941Z,96842.47
2023-01-08T07:32:51.541Z,96839.16
2023-01-08T07:35:00.173Z,96855.66
2023-01-08T07:37:08.149Z,96842.47
2023-01-08T07:39:16.206Z,96846.09
2023-01-08T07:41:25.238Z,96848.16
2023-01-08T07:43:33.232Z,96843.31
2023-01-08T07:45:41.768Z,96847.75
2023-01-08T07:47:52.207Z,96839.88
2023-01-08T07:50:00.305Z,96846.84
2023-01-08T07:52:08.481Z,96845.59
2023-01-08T07:54:16.409Z,96854.19
2023-01-08T07:56:24.471Z,96852.81
2023-01-08T07:58:32.378Z,96848.78
2023-01-08T08:00:40.425Z,96842.66
2023-01-08T08:02:48.571Z,96840.34
2023-01-08T08:04:59.419Z,96850.31
2023-01-08T08:07:07.992Z,96863.84
2023-01-08T08:09:18.893Z,96867.88
2023-01-08T08:11:26.938Z,96862.69
2023-01-08T08:13:35.102Z,96852.66
2023-01-08T08:15:44.029Z,96851.06
2023-01-08T08:17:52.529Z,96848.50
2023-01-08T08:20:03.079Z,96856.66
2023-01-08T08:22:13.033Z,96848.63
2023-01-08T08:24:21.005Z,96845.31
2023-01-08T08:26:28.828Z,96837.06
2023-01-08T08:28:36.750Z,96839.06
2023-01-08T08:30:47.163Z,96828.06
2023-01-08T08:32:55.496Z,96829.97
2023-01-08T08:35:07.059Z,96826.56
2023-01-08T08:37:15.076Z,96818.56
2023-01-08T08:39:23.001Z,96820.78
2023-01-08T08:41:31.719Z,96816.88
2023-01-08T08:43:39.799Z,96815.66
2023-01-08T08:45:47.842Z,96814.53
2023-01-08T08:47:56.110Z,96810.50
2023-01-08T08:50:06.647Z,96812.44
2023-01-08T08:52:16.490Z,96804.19
2023-01-08T08:54:24.361Z,96799.28
2023-01-08T08:56:32.593Z,96798.97
2023-01-08T08:58:41.954Z,96798.44
2023-01-08T09:00:49.851Z,96801.00
2023-01-08T09:02:58.265Z,96790.31
2023-01-08T09:05:09.522Z,96795.06
2023-01-08T09:07:18.027Z,96792.00
2023-01-08T09:09:26.094Z,96790.81
2023-01-08T09:11:34.661Z,96788.81
2023-01-08T09:13:42.601Z,96790.44
2023-01-08T09:15:50.729Z,96788.94
2023-01-08T09:17:59.216Z,96784.69
2023-01-08T09:20:11.360Z,96784.78
2023-01-08T09:22:19.114Z,96778.25
2023-01-08T09:24:27.398Z,96775.81
2023-01-08T09:26:35.487Z,96774.03
2023-01-08T09:28:43.332Z,96777.41
2023-01-08T09:30:51.079Z,96780.91
2023-01-08T09:33:03.217Z,96793.81
2023-01-08T09:35:16.735Z,96790.31
2023-01-08T09:37:25.404Z,96787.38
2023-01-08T09:39:33.194Z,96788.75
2023-01-08T09:41:43.856Z,96791.06
2023-01-08T09:43:54.619Z,96801.25
2023-01-08T09:46:07.394Z,96808.34
2023-01-08T09:48:19.756Z,96802.53
2023-01-08T09:50:33.085Z,96803.34
2023-01-08T09:52:43.728Z,96814.81
2023-01-08T09:54:52.349Z,96809.19
2023-01-08T09:57:03.639Z,96802.00
2023-01-08T09:59:18.001Z,96800.81
2023-01-08T10:01:28.152Z,96806.00
2023-01-08T10:03:43.654Z,96814.38
2023-01-08T10:05:54.874Z,96809.50
2023-01-08T10:08:02.704Z,96813.19
2023-01-08T10:10:21.619Z,96810.00
2023-01-08T10:12:31.473Z,96815.88
2023-01-08T10:14:48.114Z,96819.25
2023-01-08T10:17:02.214Z,96828.66
2023-01-08T10:19:13.012Z,96827.50
2023-01-08T10:21:27.640Z,96823.06
2023-01-08T10:23:35.582Z,96824.94
2023-01-08T10:25:55.285Z,96815.09
2023-01-08T10:28:05.375Z,96825.38
2023-01-08T10:30:19.277Z,96817.03
2023-01-08T10:32:34.596Z,96816.91
2023-01-08T10:34:49.203Z,96825.25
2023-01-08T10:37:00.222Z,96821.25
2023-01-08T10:39:09.337Z,96816.56
2023-01-08T10:41:19.075Z,96817.13
2023-01-08T10:43:31.687Z,96817.47
2023-01-08T10:45:42.237Z,96818.22
2023-01-08T10:47:53.240Z,96817.16
2023-01-08T10:50:03.013Z,96806.88
2023-01-08T10:52:28.258Z,96799.63
2023-01-08T10:54:38.899Z,96797.78
2023-01-08T10:56:48.166Z,96810.06
2023-01-08T10:58:56.465Z,96801.25
2023-01-08T11:01:15.568Z,96805.91
2023-01-08T11:03:34.217Z,96809.00
2023-01-08T11:05:43.241Z,96798.41
2023-01-08T11:07:58.460Z,96800.34
2023-01-08T11:10:07.910Z,96793.19
2023-01-08T11:12:33.521Z,96793.88
2023-01-08T11:14:41.818Z,96799.00
2023-01-08T11:16:50.046Z,96789.59
2023-01-08T11:18:58.166Z,96793.72
2023-01-08T11:21:12.063Z,96800.03
2023-01-08T11:23:25.297Z,96794.25
2023-01-08T11:25:34.077Z,96791.22
2023-01-08T11:27:46.149Z,96783.56
2023-01-08T11:30:00.997Z,96784.06
2023-01-08T11:32:23.328Z,96782.25
2023-01-08T11:34:37.001Z,96776.44
2023-01-08T11:36:52.231Z,96764.53
2023-01-08T11:39:03.622Z,96764.53
2023-01-08T11:41:25.661Z,96761.66
2023-01-08T11:43:44.998Z,96752.97
2023-01-08T11:46:06.838Z,96746.81
2023-01-08T11:48:38.473Z,96737.63
2023-01-08T11:50:58.260Z,96727.13
2023-01-08T11:53:23.534Z,96724.78
2023-01-08T11:55:46.445Z,96724.31
2023-01-08T11:58:09.608Z,96720.94
2023-01-08T12:00:35.070Z,96716.34
2023-01-08T12:02:54.422Z,96717.41
2023-01-08T12:05:24.780Z,96709.22
2023-01-08T12:07:40.745Z,96718.06
2023-01-08T12:09:53.352Z,96706.31
2023-01-08T12:12:15.163Z,96711.13
2023-01-08T12:14:47.695Z,96711.25
2023-01-08T12:17:15.303Z,96704.63
2023-01-08T12:19:50.752Z,96697.88
2023-01-08T12:22:16.692Z,96692.31
2023-01-08T12:24:54.705Z,96690.16
2023-01-08T12:27:13.761Z,96686.78
2023-01-08T12:29:58.363Z,96685.44
2023-01-08T12:32:24.576Z,96678.09
2023-01-08T12:34:44.141Z,96676.50
2023-01-08T12:37:01.112Z,96675.75
2023-01-08T12:39:15.225Z,96686.88
2023-01-08T12:41:23.143Z,96686.63
2023-01-08T12:43:38.384Z,96683.25
2023-01-08T12:45:48.791Z,96687.47
2023-01-08T12:48:01.492Z,96681.31
2023-01-08T12:50:24.002Z,96693.47
2023-01-08T12:52:39.525Z,96685.28
2023-01-08T12:54:54.627Z,96680.25
2023-01-08T12:57:11.020Z,96672.88
2023-01-08T12:59:35.462Z,96660.09
2023-01-08T13:01:50.698Z,96658.66
2023-01-08T13:04:01.498Z,96657.19
2023-01-08T13:06:13.082Z,96659.31
2023-01-08T13:08:35.047Z,96656.72
2023-01-08T13:10:53.968Z,96657.19
2023-01-08T13:13:02.647Z,96657.81
2023-01-08T13:15:23.430Z,96656.00
2023-01-08T13:17:31.863Z,96659.00
2023-01-08T13:19:44.618Z,96655.03
2023-01-08T13:21:55.673Z,96651.19
2023-01-08T13:24:09.563Z,96648.28
2023-01-08T13:26:18.043Z,96640.31
2023-01-08T13:28:42.101Z,96645.41
2023-01-08T13:30:53.482Z,96643.09
2023-01-08T13:33:02.165Z,96643.09
2023-01-08T13:35:24.763Z,96637.78
2023-01-08T13:37:32.632Z,96630.94
2023-01-08T13:39:42.042Z,96629.59
2023-01-08T13:42:02.519Z,96625.28
2023-01-08T13:44:20.382Z,96623.13
2023-01-08T13:46:31.775Z,96620.09
2023-01-08T13:48:42.353Z,96612.13
2023-01-08T13:50:51.058Z,96607.28
2023-01-08T13:53:00.990Z,96603.91
2023-01-08T13:55:16.685Z,96608.03
2023-01-08T13:57:26.608Z,96603.28
2023-01-08T13:59:40.748Z,96599.53
2023-01-08T14:02:00.593Z,96594.09
2023-01-08T14:04:08.613Z,96595.84
2023-01-08T14:06:20.355Z,96597.13
2023-01-08T14:08:29.474Z,96591.56
2023-01-08T14:10:39.792Z,96589.63
2023-01-08T14:12:48.645Z,96591.53
2023-01-08T14:15:00.573Z,96576.88
2023-01-08T14:17:18.569Z,96581.38
2023-01-08T14:19:28.392Z,96585.03
2023-01-08T14:21:36.596Z,96581.28
2023-01-08T14:23:49.818Z,96580.22
2023-01-08T14:25:58.069Z,96575.19
2023-01-08T14:28:08.378Z,96567.53
2023-01-08T14:30:20.656Z,96569.25
2023-01-08T14:32:33.610Z,96575.09
2023-01-08T14:34:43.827Z,96587.16
2023-01-08T14:36:54.026Z,96587.81
2023-01-08T14:39:01.854Z,96571.25
2023-01-08T14:41:13.099Z,96577.31
2023-01-08T14:43:23.753Z,96577.19
2023-01-08T14:45:34.597Z,96576.94
2023-01-08T14:47:49.356Z,96567.19
2023-01-08T14:49:57.716Z,96566.19
2023-01-08T14:52:06.304Z,96563.34
2023-01-08T14:54:21.629Z,96567.53
2023-01-08T14:56:33.891Z,96569.97
2023-01-08T14:58:45.528Z,96568.41
2023-01-08T15:00:57.100Z,96565.28
2023-01-08T15:03:07.777Z,96562.06
2023-01-08T15:05:22.332Z,96548.53
2023-01-08T15:07:30.454Z,96554.19
2023-01-08T15:09:39.348Z,96545.34
2023-01-08T15:11:56.407Z,96540.72
2023-01-08T15:14:16.718Z,96532.47
2023-01-08T15:16:30.636Z,96523.44
2023-01-08T15:18:46.124Z,96523.16
2023-01-08T15:20:55.593Z,96517.06
2023-01-08T15:23:08.304Z,96512.75
2023-01-08T15:25:20.261Z,96514.56
2023-01-08T15:27:31.455Z,96507.19
2023-01-08T15:29:42.855Z,96503.81
2023-01-08T15:31:52.052Z,96510.09
2023-01-08T15:34:03.647Z,96504.19
2023-01-08T15:36:12.031Z,96493.59
2023-01-08T15:38:20.956Z,96488.53
2023-01-08T15:40:28.718Z,96480.72
2023-01-08T15:42:49.113Z,96471.47
2023-01-08T15:44:57.190Z,96474.19
2023-01-08T15:47:05.714Z,96472.00
2023-01-08T15:49:16.431Z,96469.44
2023-01-08T15:51:24.565Z,96464.75
2023-01-08T15:53:32.635Z,96461.13
2023-01-08T15:55:43.683Z,96458.84
2023-01-08T15:57:52.460Z,96456.81
2023-01-08T16:00:00.885Z,96463.69
2023-01-08T16:02:08.786Z,96454.03
2023-01-08T16:04:19.657Z,96453.09
2023-01-08T16:06:28.218Z,96447.53
2023-01-08T16:08:36.313Z,96455.63
2023-01-08T16:10:44.850Z,96456.81
2023-01-08T16:12:52.824Z,96454.91
2023-01-08T16:15:00.945Z,96445.03
2023-01-08T16:17:10.107Z,96453.94
2023-01-08T16:19:20.732Z,96452.63
2023-01-08T16:21:28.755Z,96456.34
2023-01-08T16:23:37.780Z,96443.81
2023-01-08T16:25:46.192Z,96449.97
2023-01-08T16:27:55.178Z,96440.81
2023-01-08T16:30:03.116Z,96451.91
2023-01-08T16:32:12.480Z,96451.03
2023-01-08T16:34:23.223Z,96445.38
2023-01-08T16:36:31.611Z,96431.56
2023-01-08T16:38:39.621Z,96431.16
2023-01-08T16:40:47.525Z,96428.28
2023-01-08T16:42:55.484Z,96422.91
2023-01-08T16:45:03.563Z,96416.50
2023-01-08T16:47:11.602Z,96412.88
2023-01-08T16:49:23.019Z,96397.09
2023-01-08T16:51:31.019Z,96397.22
2023-01-08T16:53:40.030Z,96394.44
2023-01-08T16:55:48.121Z,96383.50
2023-01-08T16:57:57.244Z,96380.59
2023-01-08T17:00:05.846Z,96373.31
2023-01-08T17:02:14.154Z,96361.31
2023-01-08T17:04:27.936Z,96355.06
2023-01-08T17:06:40.296Z,96339.63
2023-01-08T17:08:48.215Z,96345.19
2023-01-08T17:10:55.961Z,96353.00
2023-01-08T17:13:04.056Z,96353.72
2023-01-08T17:15:13.025Z,96349.53
2023-01-08T17:17:21.124Z,96357.81
2023-01-08T17:19:31.672Z,96354.81
2023-01-08T17:21:39.485Z,96356.25
2023-01-08T17:23:48.393Z,96362.97
2023-01-08T17:25:56.588Z,96359.97
2023-01-08T17:28:07.029Z,96360.94
2023-01-08T17:30:17.092Z,96366.25
2023-01-08T17:32:26.334Z,96357.34
2023-01-08T17:34:37.130Z,96348.78
2023-01-08T17:36:45.210Z,96349.97
2023-01-08T17:38:54.744Z,96342.63
2023-01-08T17:41:04.090Z,96338.53
2023-01-08T17:43:12.073Z,96330.59
2023-01-08T17:45:23.389Z,96325.06
2023-01-08T17:47:31.595Z,96333.50
2023-01-08T17:49:41.960Z,96333.50
2023-01-08T17:51:50.529Z,96330.94
2023-01-08T17:53:59.665Z,96330.38
2023-01-08T17:56:08.372Z,96333.16
2023-01-08T17:58:16.572Z,96325.44
2023-01-08T18:00:25.961Z,96330.72
2023-01-08T18:02:33.842Z,96326.88
2023-01-08T18:04:45.687Z,96328.44
2023-01-08T18:06:53.701Z,96331.00
2023-01-08T18:09:01.560Z,96329.66
2023-01-08T18:11:12.800Z,96322.31
2023-01-08T18:13:21.594Z,96317.50
2023-01-08T18:15:29.448Z,96307.53
2023-01-08T18:17:37.389Z,96312.31
2023-01-08T18:19:48.849Z,96311.00
2023-01-08T18:21:56.780Z,96295.00
2023-01-08T18:24:04.893Z,96299.19
2023-01-08T18:26:14.425Z,96291.84
2023-01-08T18:28:22.566Z,96291.00
2023-01-08T18:30:30.912Z,96280.78
2023-01-08T18:32:40.122Z,96276.19
2023-01-08T18:34:51.353Z,96259.75
2023-01-08T18:36:59.226Z,96263.69
2023-01-08T18:39:07.425Z,96247.94
2023-01-08T18:41:38.011Z,96247.81
2023-01-08T18:43:46.368Z,96250.44
2023-01-08T18:45:54.384Z,96258.16
2023-01-08T18:48:02.416Z,96257.09
2023-01-08T18:50:14.997Z,96253.69
2023-01-08T18:52:22.745Z,96255.50
2023-01-08T18:54:30.788Z,96241.66
2023-01-08T18:56:39.384Z,96247.22
2023-01-08T18:58:47.350Z,96250.44
2023-01-08T19:00:56.206Z,96253.91
2023-01-08T19:03:06.723Z,96253.69
2023-01-08T19:05:17.641Z,96257.66
2023-01-08T19:07:25.864Z,96246.88
2023-01-08T19:09:33.592Z,96245.63
2023-01-08T19:11:42.418Z,96248.28
2023-01-08T19:13:50.873Z,96252.38
2023-01-08T19:15:58.986Z,96252.03
2023-01-08T19:18:09.138Z,96248.03
2023-01-08T19:20:20.254Z,96244.22
2023-01-08T19:22:29.322Z,96234.47
2023-01-08T19:24:37.503Z,96230.72
2023-01-08T19:26:45.727Z,96222.09
2023-01-08T19:28:53.580Z,96214.00
2023-01-08T19:31:03.190Z,96216.31
2023-01-08T19:33:11.084Z,96206.31
2023-01-08T19:35:21.578Z,96195.84
2023-01-08T19:37:29.442Z,96200.91
2023-01-08T19:39:37.425Z,96195.63
2023-01-08T19:41:57.731Z,96188.53
2023-01-08T19:44:05.963Z,96188.28
2023-01-08T19:46:15.533Z,96184.78
2023-01-08T19:48:24.219Z,96182.84
2023-01-08T19:50:35.653Z,96175.19
2023-01-08T19:52:43.878Z,96167.47
2023-01-08T19:54:51.864Z,96166.63
2023-01-08T19:56:59.762Z,96167.25
2023-01-08T19:59:08.071Z,96165.56
2023-01-08T20:01:18.342Z,96159.53
2023-01-08T20:03:27.006Z,96150.41
2023-01-08T20:05:37.771Z,96151.47
2023-01-08T20:07:45.646Z,96147.75
2023-01-08T20:09:53.473Z,96142.34
2023-01-08T20:12:01.720Z,96138.28
2023-01-08T20:14:09.501Z,96141.38
2023-01-08T20:16:19.899Z,96143.66
2023-01-08T20:18:27.882Z,96134.28
2023-01-08T20:20:38.395Z,96129.25
2023-01-08T20:22:46.425Z,96127.19
2023-01-08T20:24:56.481Z,96123.59
2023-01-08T20:27:06.069Z,96123.47
2023-01-08T20:29:15.546Z,96119.25
2023-01-08T20:31:26.600Z,96114.94
2023-01-08T20:33:35.653Z,96105.19
2023-01-08T20:35:46.070Z,96101.38
2023-01-08T20:37:54.375Z,96096.06
2023-01-08T20:40:02.629Z,96082.25
2023-01-08T20:42:12.275Z,96072.41
2023-01-08T20:44:25.026Z,96062.31
2023-01-08T20:46:33.032Z,96064.22
2023-01-08T20:48:47.804Z,96061.72
2023-01-08T20:51:03.483Z,96048.72
2023-01-08T20:53:11.306Z,96039.94
2023-01-08T20:55:19.258Z,96048.00
2023-01-08T20:57:28.290Z,96045.84
2023-01-08T20:59:45.323Z,96044.88
2023-01-08T21:02:03.081Z,96044.28
2023-01-08T21:04:26.017Z,96044.88
2023-01-08T21:06:39.267Z,96035.16
2023-01-08T21:08:54.569Z,96033.22
2023-01-08T21:11:07.484Z,96023.13
2023-01-08T21:13:18.771Z,96025.78
2023-01-08T21:15:31.396Z,96024.38
2023-01-08T21:17:39.975Z,96015.69
2023-01-08T21:19:50.336Z,96005.38
2023-01-08T21:22:00.980Z,95999.13
2023-01-08T21:24:15.422Z,95991.06
2023-01-08T21:26:26.313Z,95994.56
2023-01-08T21:28:34.732Z,95991.69
2023-01-08T21:30:42.575Z,95992.28
2023-01-08T21:32:50.541Z,95989.88
2023-01-08T21:34:58.310Z,95970.91
2023-01-08T21:37:08.900Z,95968.00
2023-01-08T21:39:16.757Z,95956.13
2023-01-08T21:41:39.111Z,95948.44
2023-01-08T21:43:59.536Z,95930.78
2023-01-08T21:46:07.818Z,95922.63
2023-01-08T21:48:16.207Z,95921.09
2023-01-08T21:50:25.377Z,95924.31
2023-01-08T21:52:48.299Z,95913.28
2023-01-08T21:54:58.168Z,95913.25
2023-01-08T21:57:06.420Z,95911.25
2023-01-08T21:59:14.540Z,95901.16
2023-01-08T22:01:22.639Z,95908.25
2023-01-08T22:03:30.761Z,95902.34
2023-01-08T22:05:38.589Z,95907.75
2023-01-08T22:07:51.265Z,95902.00
2023-01-08T22:10:00.685Z,95896.84
2023-01-08T22:12:09.686Z,95895.88
2023-01-08T22:14:18.787Z,95892.38
2023-01-08T22:16:26.779Z,95892.38
2023-01-08T22:18:35.130Z,95884.94
2023-01-08T22:20:43.130Z,95878.94
2023-01-08T22:22:56.931Z,95865.84
2023-01-08T22:25:05.681Z,95863.94
2023-01-08T22:27:13.586Z,95865.72
2023-01-08T22:29:21.613Z,95865.34
2023-01-08T22:31:29.487Z,95866.56
2023-01-08T22:33:37.849Z,95872.69
2023-01-08T22:35:45.883Z,95864.16
2023-01-08T22:37:56.440Z,95853.59
2023-01-08T22:40:04.320Z,95852.53
2023-01-08T22:42:12.179Z,95847.47
2023-01-08T22:44:19.853Z,95856.56
2023-01-08T22:46:28.141Z,95853.09
2023-01-08T22:48:37.485Z,95854.28
2023-01-08T22:50:45.332Z,95856.72
2023-01-08T22:52:53.799Z,95856.94
2023-01-08T22:55:04.238Z,95865.97
2023-01-08T22:57:12.414Z,95863.31
2023-01-08T22:59:21.158Z,95860.34
2023-01-08T23:01:32.368Z,95859.00
2023-01-08T23:03:43.112Z,95854.69
2023-01-08T23:05:50.958Z,95844.13
2023-01-08T23:07:58.810Z,95853.34
2023-01-08T23:10:10.275Z,95846.41
2023-01-08T23:12:18.178Z,95845.69
2023-01-08T23:14:26.237Z,95847.38
2023-01-08T23:16:34.108Z,95845.91
2023-01-08T23:18:42.895Z,95847.22
2023-01-08T23:20:51.000Z,95857.56
2023-01-08T23:22:58.791Z,95848.19
2023-01-08T23:25:10.026Z,95848.19
2023-01-08T23:27:19.610Z,95848.06
2023-01-08T23:29:29.581Z,95844.72
2023-01-08T23:31:40.580Z,95842.31
2023-01-08T23:33:48.746Z,95840.06
2023-01-08T23:35:56.423Z,95842.09
2023-01-08T23:38:04.727Z,95834.53
2023-01-08T23:40:16.462Z,95839.94
2023-01-08T23:42:24.524Z,95837.44
2023-01-08T23:44:32.543Z,95839.69
2023-01-08T23:46:40.653Z,95832.63
2023-01-08T23:48:50.985Z,95832.72
2023-01-08T23:50:59.024Z,95838.13
2023-01-08T23:53:07.229Z,95837.53
2023-01-08T23:55:17.869Z,95835.97
2023-01-08T23:57:25.877Z,95835.72
2023-01-08T23:59:33.693Z,95836.81
